createdAt,value
2024-04-14T00:00:01.362Z,102110
2024-04-14T00:05:00.392Z,102120
2024-04-14T00:10:00.519Z,102130
2024-04-14T00:15:00.327Z,102120
2024-04-14T00:20:00.423Z,102120
2024-04-14T00:25:00.370Z,102120
2024-04-14T00:30:00.361Z,102120
2024-04-14T00:35:00.410Z,102120
2024-04-14T00:40:00.383Z,102120
2024-04-14T00:45:00.346Z,102130
2024-04-14T00:50:00.352Z,102130
2024-04-14T00:55:01.130Z,102150
2024-04-14T01:00:02.043Z,102150
2024-04-14T01:05:00.379Z,102150
2024-04-14T01:10:00.599Z,102160
2024-04-14T01:15:01.209Z,102160
2024-04-14T01:20:00.414Z,102160
2024-04-14T01:25:03.982Z,102170
2024-04-14T01:30:01.208Z,102170
2024-04-14T01:35:00.670Z,102180
2024-04-14T01:40:00.571Z,102180
2024-04-14T01:45:00.419Z,102180
2024-04-14T01:50:00.389Z,102180
2024-04-14T01:55:00.514Z,102190
2024-04-14T02:00:01.676Z,102200
2024-04-14T02:05:00.343Z,102190
2024-04-14T02:10:00.587Z,102200
2024-04-14T02:15:00.532Z,102200
2024-04-14T02:20:00.412Z,102210
2024-04-14T02:25:00.599Z,102210
2024-04-14T02:30:00.357Z,102220
2024-04-14T02:35:00.347Z,102220
2024-04-14T02:40:00.559Z,102230
2024-04-14T02:45:00.347Z,102220
2024-04-14T02:50:00.349Z,102230
2024-04-14T02:55:00.389Z,102230
2024-04-14T03:00:00.980Z,102240
2024-04-14T03:05:00.398Z,102230
2024-04-14T03:10:00.403Z,102250
2024-04-14T03:15:00.343Z,102240
2024-04-14T03:20:00.402Z,102250
2024-04-14T03:25:00.427Z,102250
2024-04-14T03:30:00.369Z,102240
2024-04-14T03:35:00.339Z,102250
2024-04-14T03:40:00.432Z,102270
2024-04-14T03:45:04.010Z,102270
2024-04-14T03:50:00.736Z,102270
2024-04-14T03:55:00.487Z,102270
2024-04-14T04:00:02.245Z,102280
2024-04-14T04:05:00.349Z,102290
2024-04-14T04:10:00.721Z,102280
2024-04-14T04:15:00.375Z,102290
2024-04-14T04:20:00.499Z,102290
2024-04-14T04:25:00.517Z,102290
2024-04-14T04:30:00.363Z,102290
2024-04-14T04:35:00.332Z,102300
2024-04-14T04:40:00.479Z,102310
2024-04-14T04:45:00.328Z,102320
2024-04-14T04:50:00.352Z,102320
2024-04-14T04:55:00.560Z,102330
2024-04-14T05:00:01.059Z,102320
2024-04-14T05:05:00.327Z,102320
2024-04-14T05:10:00.655Z,102320
2024-04-14T05:15:00.416Z,102320
2024-04-14T05:20:00.354Z,102340
2024-04-14T05:25:00.770Z,102340
2024-04-14T05:30:00.401Z,102340
2024-04-14T05:35:00.359Z,102350
2024-04-14T05:40:00.381Z,102350
2024-04-14T05:45:00.327Z,102350
2024-04-14T05:50:01.760Z,102350
2024-04-14T05:55:00.465Z,102360
2024-04-14T06:00:02.466Z,102370
2024-04-14T06:05:00.341Z,102380
2024-04-14T06:10:00.530Z,102380
2024-04-14T06:15:00.365Z,102370
2024-04-14T06:20:00.353Z,102370
2024-04-14T06:25:00.599Z,102370
2024-04-14T06:30:00.410Z,102380
2024-04-14T06:35:00.323Z,102390
2024-04-14T06:40:00.403Z,102380
2024-04-14T06:45:00.509Z,102390
2024-04-14T06:50:00.348Z,102390
2024-04-14T06:55:00.474Z,102390
2024-04-14T07:00:02.147Z,102390
2024-04-14T07:05:00.323Z,102400
2024-04-14T07:10:00.370Z,102410
2024-04-14T07:15:00.862Z,102410
2024-04-14T07:20:00.355Z,102410
2024-04-14T07:25:00.436Z,102400
2024-04-14T07:30:00.562Z,102400
2024-04-14T07:35:00.351Z,102410
2024-04-14T07:40:00.402Z,102410
2024-04-14T07:45:00.348Z,102420
2024-04-14T07:50:00.347Z,102430
2024-04-14T07:55:00.518Z,102430
2024-04-14T08:00:02.147Z,102430
2024-04-14T08:05:00.501Z,102440
2024-04-14T08:10:00.481Z,102440
2024-04-14T08:15:00.351Z,102450
2024-04-14T08:20:00.333Z,102440
2024-04-14T08:25:00.679Z,102440
2024-04-14T08:30:00.412Z,102450
2024-04-14T08:35:00.334Z,102440
2024-04-14T08:40:01.309Z,102440
2024-04-14T08:45:01.665Z,102430
2024-04-14T08:50:02.286Z,102430
2024-04-14T08:55:00.495Z,102440
2024-04-14T09:00:01.853Z,102440
2024-04-14T09:05:00.328Z,102440
2024-04-14T09:10:00.418Z,102460
2024-04-14T09:15:03.011Z,102460
2024-04-14T09:20:00.396Z,102460
2024-04-14T09:25:00.503Z,102460
2024-04-14T09:30:19.339Z,102460
2024-04-14T09:35:00.351Z,102470
2024-04-14T09:40:05.110Z,102460
2024-04-14T09:45:02.926Z,102470
2024-04-14T09:50:00.851Z,102470
2024-04-14T09:55:00.442Z,102470
2024-04-14T10:00:01.627Z,102470
2024-04-14T10:05:01.516Z,102470
2024-04-14T10:10:00.608Z,102480
2024-04-14T10:15:06.660Z,102470
2024-04-14T10:20:02.823Z,102480
2024-04-14T10:25:00.529Z,102480
2024-04-14T10:30:02.851Z,102480
2024-04-14T10:35:00.381Z,102470
2024-04-14T10:40:00.422Z,102470
2024-04-14T10:45:00.335Z,102470
2024-04-14T10:50:00.397Z,102470
2024-04-14T10:55:00.516Z,102470
2024-04-14T11:00:01.035Z,102460
2024-04-14T11:05:01.751Z,102460
2024-04-14T11:10:01.093Z,102450
2024-04-14T11:15:00.424Z,102440
2024-04-14T11:20:00.453Z,102440
2024-04-14T11:25:00.545Z,102420
2024-04-14T11:30:00.621Z,102420
2024-04-14T11:35:01.306Z,102410
2024-04-14T11:40:01.033Z,102410
2024-04-14T11:45:00.382Z,102400
2024-04-14T11:50:00.341Z,102390
2024-04-14T11:55:04.555Z,102400
2024-04-14T12:00:01.304Z,102400
2024-04-14T12:05:00.387Z,102400
2024-04-14T12:10:00.491Z,102390
2024-04-14T12:15:00.413Z,102400
2024-04-14T12:20:00.346Z,102390
2024-04-14T12:25:00.873Z,102390
2024-04-14T12:30:00.385Z,102400
2024-04-14T12:35:00.382Z,102370
2024-04-14T12:40:00.515Z,102360
2024-04-14T12:45:00.407Z,102370
2024-04-14T12:50:00.420Z,102360
2024-04-14T12:55:00.437Z,102350
2024-04-14T13:00:00.998Z,102340
2024-04-14T13:05:00.493Z,102340
2024-04-14T13:10:00.448Z,102340
2024-04-14T13:15:00.521Z,102330
2024-04-14T13:20:00.378Z,102320
2024-04-14T13:25:00.392Z,102320
2024-04-14T13:30:00.534Z,102310
2024-04-14T13:35:00.328Z,102290
2024-04-14T13:40:00.450Z,102290
2024-04-14T13:45:00.364Z,102280
2024-04-14T13:50:00.350Z,102280
2024-04-14T13:55:01.003Z,102280
2024-04-14T14:00:01.315Z,102280
2024-04-14T14:05:00.487Z,102280
2024-04-14T14:10:00.484Z,102270
2024-04-14T14:15:00.391Z,102270
2024-04-14T14:20:00.335Z,102270
2024-04-14T14:25:00.523Z,102270
2024-04-14T14:30:00.400Z,102260
2024-04-14T14:35:00.328Z,102260
2024-04-14T14:40:00.461Z,102250
2024-04-14T14:45:00.346Z,102250
2024-04-14T14:50:00.368Z,102240
2024-04-14T14:55:00.426Z,102250
2024-04-14T15:00:00.991Z,102250
2024-04-14T15:05:00.583Z,102250
2024-04-14T15:10:00.433Z,102230
2024-04-14T15:15:00.628Z,102240
2024-04-14T15:20:00.588Z,102230
2024-04-14T15:25:00.429Z,102230
2024-04-14T15:30:00.337Z,102220
2024-04-14T15:35:00.352Z,102220
2024-04-14T15:40:01.132Z,102220
2024-04-14T15:45:00.356Z,102220
2024-04-14T15:50:00.583Z,102210
2024-04-14T15:55:00.365Z,102210
2024-04-14T16:00:01.757Z,102210
2024-04-14T16:05:00.826Z,102210
2024-04-14T16:10:00.719Z,102200
2024-04-14T16:15:00.331Z,102190
2024-04-14T16:20:00.378Z,102180
2024-04-14T16:25:00.388Z,102170
2024-04-14T16:30:00.517Z,102170
2024-04-14T16:35:00.326Z,102160
2024-04-14T16:40:00.412Z,102160
2024-04-14T16:45:00.418Z,102140
2024-04-14T16:50:00.360Z,102140
2024-04-14T16:55:00.389Z,102130
2024-04-14T17:00:01.383Z,102130
2024-04-14T17:05:00.374Z,102120
2024-04-14T17:10:00.564Z,102120
2024-04-14T17:15:00.402Z,102120
2024-04-14T17:20:00.353Z,102110
2024-04-14T17:25:00.484Z,102100
2024-04-14T17:30:00.393Z,102090
2024-04-14T17:35:00.332Z,102070
2024-04-14T17:40:03.461Z,102060
2024-04-14T17:45:00.418Z,102050
2024-04-14T17:50:00.343Z,102040
2024-04-14T17:55:00.397Z,102040
2024-04-14T18:00:00.914Z,102030
2024-04-14T18:05:00.336Z,102020
2024-04-14T18:10:00.476Z,102020
2024-04-14T18:15:00.367Z,102010
2024-04-14T18:20:00.424Z,102010
2024-04-14T18:25:00.366Z,102010
2024-04-14T18:30:00.502Z,102000
2024-04-14T18:35:00.550Z,101990
2024-04-14T18:40:00.388Z,101990
2024-04-14T18:45:00.375Z,101990
2024-04-14T18:50:00.386Z,101980
2024-04-14T18:55:00.754Z,101980
2024-04-14T19:00:01.020Z,101980
2024-04-14T19:05:00.345Z,101980
2024-04-14T19:10:00.439Z,101990
2024-04-14T19:15:00.391Z,101980
2024-04-14T19:20:00.344Z,101970
2024-04-14T19:25:00.375Z,101970
2024-04-14T19:30:00.841Z,101970
2024-04-14T19:35:00.314Z,101950
2024-04-14T19:40:00.396Z,101940
2024-04-14T19:45:00.453Z,101940
2024-04-14T19:50:00.343Z,101950
2024-04-14T19:55:00.367Z,101950
2024-04-14T20:00:00.968Z,101940
2024-04-14T20:05:00.314Z,101940
2024-04-14T20:10:00.717Z,101930
2024-04-14T20:15:00.443Z,101920
2024-04-14T20:20:00.350Z,101920
2024-04-14T20:25:00.397Z,101910
2024-04-14T20:30:00.555Z,101900
2024-04-14T20:35:00.352Z,101910
2024-04-14T20:40:00.608Z,101900
2024-04-14T20:55:00.528Z,101880
2024-04-14T21:00:00.764Z,101890
2024-04-14T21:05:00.405Z,101900
2024-04-14T21:10:00.491Z,101890
2024-04-14T21:15:00.637Z,101870
2024-04-14T21:20:00.408Z,101860
2024-04-14T21:25:00.498Z,101850
2024-04-14T21:30:00.438Z,101840
2024-04-14T21:35:00.621Z,101830
2024-04-14T21:40:00.531Z,101830
2024-04-14T21:45:00.439Z,101840
2024-04-14T21:50:00.489Z,101830
2024-04-14T21:55:00.607Z,101830
2024-04-14T22:00:01.066Z,101820
2024-04-14T22:05:00.443Z,101810
2024-04-14T22:10:00.594Z,101810
2024-04-14T22:15:00.417Z,101790
2024-04-14T22:20:00.477Z,101790
2024-04-14T22:25:00.521Z,101790
2024-04-14T22:30:00.432Z,101790
2024-04-14T22:35:00.425Z,101790
2024-04-14T22:40:00.546Z,101780
2024-04-14T22:45:00.416Z,101750
2024-04-14T22:50:02.281Z,101750
2024-04-14T22:55:00.480Z,101730
2024-04-14T23:00:01.148Z,101720
2024-04-14T23:05:00.419Z,101700
2024-04-14T23:10:00.727Z,101690
2024-04-14T23:15:00.611Z,101700
2024-04-14T23:20:00.384Z,101680
2024-04-14T23:25:00.501Z,101680
2024-04-14T23:30:00.427Z,101670
2024-04-14T23:35:00.497Z,101670
2024-04-14T23:40:00.461Z,101670
2024-04-14T23:45:00.404Z,101670
2024-04-14T23:50:00.393Z,101660
2024-04-14T23:55:00.478Z,101650
